Bei Facebook empfehlenBei Twitter postenGoogle plusPinterest

Das Wetter im Erzgebirge am 09.10.2015

Wetter und Klima am 09.10.2015 Holzhau im Erzgebirge (630m ü.NN)
Letzte gemessene Temperatur und Uhrzeit der Messung23:45:00 Uhr7.20 °C
Temperatur (Maximum / Höchstwert) und Uhrzeit der Messung13:15:00 Uhr13.40 °C
Temperatur (Minimum / Tiefstwert) und Uhrzeit der Messung23:30:007.10 °C
Errechneter Absolutwert der Temperaturschwankungen zwischen Tmin und Tmax des Tages6.30 K
Errechnete Tagesmitteltemperatur9.70833 °C
Gesamt - Niederschlag des Tages (in flüssiger Form)1.04 Liter / m²
Luftdruck (Maximum / Höchstwert) und Zeitpunkt der Messung22:15:00 Uhr1017.90 hPa
Luftdruck (Minimum / Tiefstwert) und Zeitpunkt der Messung07:15:00 Uhr1015.50 hPa
Errechneter Absolutwert der Luftdruckschwankungen des Tages2.40 hPa
Höchste gemessene Windgeschwindigkeit und Uhrzeit der Messung12:30:00 Uhr5.04 km/h
Errechnete Windhäufigkeit in Relation zu den Messwerten des Tages2.08333 %
Niedrigste Windkühle (Windchill) und Zeitpunkt der Messung23:30:00 Uhr7.10 °C
Taupunkt (Maximum / Höchstwert) und Uhrzeit der Messung13:15:00 Uhr12.80 °C
Taupunkt (Minimum / Tiefstwert) und Uhrzeit der Messung22:15:006.20 °C
Anzahl der automatisch eingelesenen Messwerte 96

Detaillierte Wetter- und Klima- Messwerte für den 09.10.2015 in Holzhau im Erzgebirge (630m ü.NN)
ZeitTemperaturLuftdruckRel. LuftfeuchteWindWindrichtungWindchillTaupunktNiederschlag l/m²
23:45:007.20 °C1017.40 hPa95.00 %6.50 °C1.04
23:30:007.10 °C1017.60 hPa95.00 %6.40 °C1.04
23:15:007.10 °C1017.40 hPa95.00 %6.40 °C1.04
23:00:007.10 °C1017.70 hPa95.00 %6.40 °C1.04
22:45:007.10 °C1017.80 hPa95.00 %6.40 °C1.04
22:30:007.10 °C1017.80 hPa95.00 %6.40 °C1.04
22:15:007.10 °C1017.90 hPa94.00 %6.20 °C1.04
22:00:007.20 °C1017.70 hPa94.00 %6.30 °C1.04
21:45:007.20 °C1017.90 hPa94.00 %6.30 °C1.04
21:30:007.20 °C1017.80 hPa94.00 %6.30 °C1.04
21:15:007.20 °C1017.90 hPa94.00 %6.30 °C1.04
21:00:007.20 °C1017.80 hPa94.00 %6.30 °C1.04
20:45:007.20 °C1017.80 hPa94.00 %6.30 °C1.04
20:30:007.20 °C1017.80 hPa94.00 %6.30 °C1.04
20:15:007.30 °C1017.70 hPa94.00 %6.40 °C1.04
20:00:007.30 °C1017.80 hPa94.00 %6.40 °C1.04
19:45:007.50 °C1017.70 hPa94.00 %6.60 °C1.04
19:30:007.80 °C1017.50 hPa94.00 %6.90 °C1.04
19:15:007.90 °C1017.40 hPa94.00 %7.00 °C1.04
19:00:007.90 °C1017.20 hPa94.00 %7.00 °C1.04
18:45:008.20 °C1017.20 hPa94.00 %7.30 °C1.04
18:30:008.30 °C1016.90 hPa94.00 %7.40 °C1.04
18:15:008.40 °C1017.00 hPa94.00 %7.50 °C1.04
18:00:008.60 °C1016.80 hPa94.00 %7.70 °C1.04
17:45:008.80 °C1016.70 hPa94.00 %7.90 °C1.04
17:30:009.00 °C1016.80 hPa94.00 %8.10 °C1.04
17:15:009.30 °C1016.90 hPa94.00 %1.44 km/hOSO9.30 °C8.40 °C1.04
17:00:009.60 °C1016.70 hPa94.00 %8.70 °C1.04
16:45:009.90 °C1016.80 hPa94.00 %9.00 °C1.04
16:30:0010.20 °C1016.80 hPa94.00 %9.30 °C1.04
16:15:0010.40 °C1016.60 hPa94.00 %9.50 °C1.04
16:00:0010.50 °C1016.80 hPa94.00 %9.60 °C1.04
15:45:0010.80 °C1016.80 hPa94.00 %9.90 °C1.04
15:30:0010.90 °C1016.50 hPa94.00 %10.00 °C1.04
15:15:0011.50 °C1016.60 hPa94.00 %10.60 °C1.04
15:00:0012.30 °C1016.50 hPa94.00 %11.40 °C1.04
14:45:0012.90 °C1016.50 hPa95.00 %12.10 °C1.04
14:30:0013.10 °C1016.50 hPa95.00 %12.30 °C1.04
14:15:0012.90 °C1016.50 hPa95.00 %12.10 °C1.04
14:00:0013.00 °C1016.50 hPa95.00 %12.20 °C1.04
13:45:0013.30 °C1016.50 hPa96.00 %12.70 °C1.04
13:30:0013.20 °C1016.50 hPa96.00 %12.60 °C1.04
13:15:0013.40 °C1016.60 hPa96.00 %12.80 °C1.04
13:00:0013.10 °C1016.60 hPa96.00 %12.50 °C1.04
12:45:0013.10 °C1016.60 hPa97.00 %12.60 °C1.04
12:30:0012.60 °C1016.60 hPa97.00 %5.04 km/hW12.70 °C12.10 °C1.04
12:15:0012.60 °C1016.60 hPa97.00 %12.10 °C1.04
12:00:0011.90 °C1016.70 hPa96.00 %11.30 °C1.04
11:45:0011.80 °C1016.60 hPa97.00 %11.30 °C1.04
11:30:0011.50 °C1016.60 hPa97.00 %11.00 °C1.04
11:15:0011.30 °C1016.70 hPa97.00 %10.80 °C1.04
11:00:0010.90 °C1016.50 hPa97.00 %10.40 °C1.04
10:45:0010.50 °C1016.70 hPa97.00 %10.00 °C1.04
10:30:009.90 °C1016.70 hPa96.00 %9.30 °C1.04
10:15:009.60 °C1016.60 hPa96.00 %9.00 °C1.04
10:00:009.40 °C1016.60 hPa96.00 %8.80 °C1.04
09:45:009.00 °C1016.70 hPa96.00 %8.40 °C1.04
09:30:009.20 °C1016.60 hPa96.00 %8.60 °C1.04
09:15:009.10 °C1016.50 hPa96.00 %8.50 °C1.04
09:00:009.20 °C1016.20 hPa96.00 %8.60 °C1.04
08:45:009.30 °C1016.30 hPa96.00 %8.70 °C1.04
08:30:009.40 °C1016.10 hPa96.00 %8.80 °C1.04
08:15:009.40 °C1016.00 hPa96.00 %8.80 °C1.04
08:00:009.60 °C1015.90 hPa96.00 %9.00 °C0.52
07:45:009.80 °C1015.70 hPa96.00 %9.20 °C0.52
07:30:009.80 °C1015.60 hPa96.00 %9.20 °C0.52
07:15:009.90 °C1015.50 hPa96.00 %9.30 °C0.52
07:00:009.90 °C1015.60 hPa96.00 %9.30 °C0.52
06:45:009.90 °C1015.60 hPa96.00 %9.30 °C0.52
06:30:009.90 °C1015.70 hPa96.00 %9.30 °C 
06:15:009.90 °C1015.60 hPa96.00 %9.30 °C 
06:00:009.90 °C1015.80 hPa96.00 %9.30 °C 
05:45:009.90 °C1015.60 hPa96.00 %9.30 °C 
05:30:009.90 °C1015.80 hPa96.00 %9.30 °C 
05:15:009.90 °C1016.00 hPa96.00 %9.30 °C 
05:00:009.90 °C1015.90 hPa96.00 %9.30 °C 
04:45:009.90 °C1016.10 hPa96.00 %9.30 °C 
04:30:009.90 °C1016.50 hPa96.00 %9.30 °C 
04:15:009.90 °C1016.20 hPa96.00 %9.30 °C 
04:00:009.90 °C1016.30 hPa96.00 %9.30 °C 
03:45:009.90 °C1016.30 hPa96.00 %9.30 °C 
03:30:009.90 °C1016.50 hPa96.00 %9.30 °C 
03:15:009.80 °C1016.40 hPa96.00 %9.20 °C 
03:00:009.80 °C1016.20 hPa96.00 %9.20 °C 
02:45:009.80 °C1016.40 hPa96.00 %9.20 °C 
02:30:009.80 °C1016.30 hPa96.00 %9.20 °C 
02:15:009.80 °C1016.30 hPa96.00 %9.20 °C 
02:00:009.80 °C1016.50 hPa96.00 %9.20 °C 
01:45:009.80 °C1016.60 hPa96.00 %9.20 °C 
01:30:009.80 °C1016.70 hPa96.00 %9.20 °C 
01:15:009.80 °C1016.60 hPa96.00 %9.20 °C 
01:00:009.80 °C1016.70 hPa96.00 %9.20 °C 
00:45:009.80 °C1016.80 hPa96.00 %9.20 °C 
00:30:009.80 °C1016.80 hPa96.00 %9.20 °C 
00:15:009.80 °C1016.70 hPa96.00 %9.20 °C 
00:00:009.80 °C1016.80 hPa96.00 %9.20 °C 

Permanenter Link zu dieser Seite: Wetter im Erzgebirge am 09.10.2015
Performance-Info: Die Erstellung der Seite / Statistik(en) / Tabelle(n) erforderte 5 Datenbankserver-Abfrage(n) und dauerte 69 Millisekunden. (Dieser Messwert ist von der Gesamt-Auslastung des Servers abhängig.)
Erzgebirge - Wetter | Erzgebirge - Wetter (Mobilgeräte) | Komplette Klimadatenbank